createdAt,value
2019-03-05T00:01:31.211Z,2.15
2019-03-05T00:04:00.542Z,2.25
2019-03-05T00:06:31.074Z,3.98
2019-03-05T00:09:00.142Z,3.58
2019-03-05T00:11:29.226Z,1.82
2019-03-05T00:13:58.570Z,4.03
2019-03-05T00:16:27.654Z,4.42
2019-03-05T00:18:56.739Z,2.50
2019-03-05T00:21:25.826Z,4.55
2019-03-05T00:23:57.166Z,5.17
2019-03-05T00:26:31.934Z,2.47
2019-03-05T00:29:10.286Z,3.27
2019-03-05T00:31:47.825Z,3.08
2019-03-05T00:34:29.086Z,3.33
2019-03-05T00:37:01.420Z,2.35
2019-03-05T00:39:45.842Z,3.42
2019-03-05T00:42:52.950Z,4.08
2019-03-05T00:45:27.957Z,4.33
2019-03-05T00:48:11.322Z,3.05
2019-03-05T00:51:05.335Z,3.37
2019-03-05T00:53:52.494Z,2.17
2019-03-05T00:56:24.838Z,2.22
2019-03-05T00:58:57.171Z,4.62
2019-03-05T01:01:57.290Z,2.72
2019-03-05T01:04:32.442Z,3.75
2019-03-05T01:07:01.526Z,7.05
2019-03-05T01:09:30.771Z,2.42
2019-03-05T01:11:59.856Z,3.42
2019-03-05T01:14:28.928Z,3.92
2019-03-05T01:16:58.002Z,3.17
2019-03-05T01:19:27.102Z,2.65
2019-03-05T01:21:56.175Z,4.47
2019-03-05T01:24:25.560Z,4.75
2019-03-05T01:26:54.672Z,3.35
2019-03-05T01:29:23.747Z,5.25
2019-03-05T01:31:57.627Z,4.60
2019-03-05T01:34:40.619Z,4.28
2019-03-05T01:37:09.686Z,3.33
2019-03-05T01:39:46.815Z,4.62
2019-03-05T01:42:15.892Z,2.85
2019-03-05T01:44:44.969Z,4.55
2019-03-05T01:47:14.042Z,4.42
2019-03-05T01:49:43.146Z,5.20
2019-03-05T01:52:12.218Z,6.83
2019-03-05T01:54:41.295Z,4.20
2019-03-05T01:57:10.378Z,7.70
2019-03-05T01:59:40.542Z,9.05
2019-03-05T02:02:09.610Z,3.75
2019-03-05T02:04:38.758Z,7.28
2019-03-05T02:07:07.844Z,6.97
2019-03-05T02:09:36.913Z,7.70
2019-03-05T02:12:06.306Z,8.20
2019-03-05T02:14:35.370Z,9.55
2019-03-05T02:17:04.454Z,7.45
2019-03-05T02:19:38.043Z,6.60
2019-03-05T02:22:13.474Z,7.53
2019-03-05T02:25:00.656Z,7.42
2019-03-05T02:27:53.586Z,5.62
2019-03-05T02:30:37.936Z,5.80
2019-03-05T02:33:21.931Z,7.30
2019-03-05T02:36:09.131Z,7.12
2019-03-05T02:38:41.480Z,6.80
2019-03-05T02:41:26.580Z,9.15
2019-03-05T02:43:58.987Z,8.78
2019-03-05T02:46:46.811Z,5.55
2019-03-05T02:49:46.388Z,5.50
2019-03-05T02:52:33.611Z,6.87
2019-03-05T02:55:29.469Z,7.97
2019-03-05T02:57:57.655Z,6.83
2019-03-05T03:00:34.450Z,8.48
2019-03-05T03:03:05.167Z,6.95
2019-03-05T03:05:35.893Z,7.47
2019-03-05T03:08:04.981Z,9.03
2019-03-05T03:10:34.067Z,5.95
2019-03-05T03:13:03.138Z,7.83
2019-03-05T03:15:32.225Z,12.10
2019-03-05T03:18:01.307Z,8.25
2019-03-05T03:20:30.379Z,8.45
2019-03-05T03:22:59.451Z,6.65
2019-03-05T03:25:28.541Z,8.08
2019-03-05T03:27:57.622Z,7.22
2019-03-05T03:30:26.699Z,7.55
2019-03-05T03:32:55.817Z,7.85
2019-03-05T03:35:24.879Z,12.28
2019-03-05T03:37:53.955Z,8.00
2019-03-05T03:40:23.350Z,13.05
2019-03-05T03:42:52.665Z,4.78
2019-03-05T03:45:22.151Z,8.13
2019-03-05T03:47:51.221Z,9.30
2019-03-05T03:50:20.300Z,8.60
2019-03-05T03:52:50.343Z,10.63
2019-03-05T03:55:19.431Z,9.48
2019-03-05T03:57:48.491Z,9.48
2019-03-05T04:00:19.319Z,7.25
2019-03-05T04:02:48.394Z,7.55
2019-03-05T04:05:17.554Z,9.18
2019-03-05T04:07:46.634Z,5.85
2019-03-05T04:10:16.390Z,6.25
2019-03-05T04:12:45.472Z,7.33
2019-03-05T04:15:17.039Z,6.80
2019-03-05T04:17:46.132Z,8.73
2019-03-05T04:20:18.413Z,6.10
2019-03-05T04:22:47.816Z,9.60
2019-03-05T04:25:16.891Z,5.90
2019-03-05T04:27:45.967Z,9.50
2019-03-05T04:30:15.039Z,8.05
2019-03-05T04:32:44.410Z,8.08
2019-03-05T04:35:13.650Z,8.25
2019-03-05T04:37:42.816Z,4.37
2019-03-05T04:40:12.162Z,6.28
2019-03-05T04:42:41.237Z,9.53
2019-03-05T04:45:41.316Z,9.53
2019-03-05T04:48:10.382Z,7.20
2019-03-05T04:50:43.851Z,7.85
2019-03-05T04:53:12.930Z,5.78
2019-03-05T04:55:42.324Z,7.97
2019-03-05T04:58:11.403Z,11.45
2019-03-05T05:00:40.477Z,7.50
2019-03-05T05:03:09.550Z,9.85
2019-03-05T05:05:38.640Z,10.05
2019-03-05T05:08:08.782Z,8.33
2019-03-05T05:10:37.879Z,6.72
2019-03-05T05:13:06.954Z,8.23
2019-03-05T05:15:36.433Z,8.30
2019-03-05T05:18:05.510Z,7.58
2019-03-05T05:20:34.586Z,8.23
2019-03-05T05:23:03.927Z,4.70
2019-03-05T05:25:33.054Z,5.72
2019-03-05T05:28:02.150Z,7.97
2019-03-05T05:30:38.450Z,6.10
2019-03-05T05:33:08.162Z,7.62
2019-03-05T05:35:37.238Z,6.62
2019-03-05T05:38:06.311Z,5.50
2019-03-05T05:40:37.125Z,6.87
2019-03-05T05:43:12.391Z,7.50
2019-03-05T05:45:49.430Z,10.60
2019-03-05T05:48:18.574Z,11.15
2019-03-05T05:50:47.649Z,5.95
2019-03-05T05:53:16.728Z,10.38
2019-03-05T05:55:45.806Z,8.70
2019-03-05T05:58:14.946Z,8.45
2019-03-05T06:00:45.677Z,12.15
2019-03-05T06:03:14.754Z,5.55
2019-03-05T06:05:43.829Z,6.30
2019-03-05T06:08:13.878Z,9.55
2019-03-05T06:10:42.950Z,7.97
2019-03-05T06:13:12.026Z,9.18
2019-03-05T06:15:41.103Z,9.75
2019-03-05T06:18:10.182Z,11.78
2019-03-05T06:20:39.258Z,12.50
2019-03-05T06:23:08.671Z,4.87
2019-03-05T06:25:37.753Z,11.80
2019-03-05T06:28:07.582Z,5.58
2019-03-05T06:30:41.482Z,8.50
2019-03-05T06:33:10.564Z,7.45
2019-03-05T06:35:39.634Z,11.73
2019-03-05T06:38:08.987Z,7.97
2019-03-05T06:40:38.062Z,10.20
2019-03-05T06:43:07.151Z,8.53
2019-03-05T06:45:36.223Z,9.88
2019-03-05T06:48:05.579Z,7.95
2019-03-05T06:50:34.721Z,10.93
2019-03-05T06:53:03.827Z,9.15
2019-03-05T06:55:32.966Z,7.58
2019-03-05T06:58:02.042Z,7.05
2019-03-05T07:00:34.188Z,7.53
2019-03-05T07:03:05.278Z,8.75
2019-03-05T07:06:11.018Z,7.22
2019-03-05T07:08:52.362Z,6.63
2019-03-05T07:11:36.880Z,9.88
2019-03-05T07:14:24.310Z,8.18
2019-03-05T07:17:11.837Z,7.72
2019-03-05T07:19:58.221Z,7.72
2019-03-05T07:22:29.573Z,6.40
2019-03-05T07:24:58.656Z,4.87
2019-03-05T07:27:28.670Z,9.05
2019-03-05T07:30:01.302Z,7.87
2019-03-05T07:32:31.990Z,8.78
2019-03-05T07:35:01.074Z,9.13
2019-03-05T07:37:30.141Z,6.00
2019-03-05T07:39:59.221Z,7.00
2019-03-05T07:42:28.293Z,5.28
2019-03-05T07:44:57.363Z,7.97
2019-03-05T07:47:26.440Z,6.87
2019-03-05T07:49:55.530Z,7.45
2019-03-05T07:52:24.611Z,7.62
2019-03-05T07:54:53.686Z,7.80
2019-03-05T07:57:22.760Z,7.90
2019-03-05T07:59:51.842Z,8.83
2019-03-05T08:02:21.180Z,4.92
2019-03-05T08:04:50.252Z,3.52
2019-03-05T08:07:19.323Z,6.45
2019-03-05T08:09:48.403Z,6.65
2019-03-05T08:12:20.971Z,6.67
2019-03-05T08:15:11.187Z,9.58
2019-03-05T08:17:40.266Z,10.03
2019-03-05T08:20:11.586Z,6.08
2019-03-05T08:22:40.926Z,8.50
2019-03-05T08:25:11.651Z,4.03
2019-03-05T08:27:41.026Z,7.25
2019-03-05T08:30:17.419Z,6.83
2019-03-05T08:32:46.529Z,6.75
2019-03-05T08:35:15.606Z,5.10
2019-03-05T08:37:44.678Z,5.78
2019-03-05T08:40:14.917Z,4.58
2019-03-05T08:42:43.993Z,6.65
2019-03-05T08:45:14.636Z,5.70
2019-03-05T08:47:43.713Z,9.13
2019-03-05T08:50:14.711Z,6.65
2019-03-05T08:52:44.229Z,4.10
2019-03-05T08:55:13.330Z,7.58
2019-03-05T08:57:44.052Z,6.03
2019-03-05T09:00:16.398Z,6.12
2019-03-05T09:02:48.819Z,5.65
2019-03-05T09:05:17.442Z,6.37
2019-03-05T09:07:46.519Z,7.72
2019-03-05T09:10:18.094Z,5.95
2019-03-05T09:12:47.751Z,5.35
2019-03-05T09:15:18.722Z,7.33
2019-03-05T09:17:47.866Z,6.70
2019-03-05T09:20:18.279Z,7.20
2019-03-05T09:22:47.683Z,7.25
2019-03-05T09:25:18.130Z,6.40
2019-03-05T09:27:47.268Z,7.70
2019-03-05T09:30:18.587Z,5.30
2019-03-05T09:32:48.166Z,7.80
2019-03-05T09:35:17.589Z,6.72
2019-03-05T09:37:46.770Z,7.97
2019-03-05T09:40:33.086Z,8.78
2019-03-05T09:43:02.175Z,10.20
2019-03-05T09:45:31.414Z,10.60
2019-03-05T09:48:00.495Z,6.78
2019-03-05T09:50:32.198Z,8.23
2019-03-05T09:53:01.522Z,10.72
2019-03-05T09:55:36.691Z,7.12
2019-03-05T09:58:08.345Z,8.28
2019-03-05T10:00:36.987Z,7.90
2019-03-05T10:03:06.999Z,9.63
2019-03-05T10:05:36.323Z,9.15
2019-03-05T10:08:07.115Z,11.05
2019-03-05T10:10:36.269Z,11.63
2019-03-05T10:13:05.339Z,10.23
2019-03-05T10:15:34.483Z,6.75
2019-03-05T10:18:12.404Z,10.35
2019-03-05T10:20:35.251Z,10.38
2019-03-05T10:23:04.915Z,5.83
2019-03-05T10:25:33.997Z,12.65
2019-03-05T10:28:03.349Z,6.20
2019-03-05T10:30:36.390Z,6.25
2019-03-05T10:33:08.171Z,6.05
2019-03-05T10:35:37.567Z,6.55
2019-03-05T10:38:07.578Z,4.97
2019-03-05T10:40:43.910Z,4.12
2019-03-05T10:43:15.450Z,4.75
2019-03-05T10:45:48.890Z,3.85
2019-03-05T10:48:23.242Z,2.55
2019-03-05T10:50:52.630Z,3.22
2019-03-05T10:53:21.938Z,3.92
2019-03-05T10:55:51.662Z,1.80
2019-03-05T10:58:20.807Z,2.10
2019-03-05T11:00:56.855Z,2.50
2019-03-05T11:03:30.162Z,2.85
2019-03-05T11:05:59.255Z,1.65
2019-03-05T11:08:28.681Z,1.55
2019-03-05T11:10:57.751Z,2.15
2019-03-05T11:13:26.822Z,2.25
2019-03-05T11:16:04.631Z,2.87
2019-03-05T11:18:33.779Z,2.60
2019-03-05T11:21:03.025Z,2.08
2019-03-05T11:23:33.291Z,1.45
2019-03-05T11:26:02.354Z,1.82
2019-03-05T11:28:31.426Z,4.17
2019-03-05T11:31:00.507Z,1.90
2019-03-05T11:33:29.582Z,2.83
2019-03-05T11:35:58.670Z,1.95
2019-03-05T11:38:27.742Z,2.50
2019-03-05T11:40:56.822Z,2.37
2019-03-05T11:43:25.903Z,2.52
2019-03-05T11:45:54.975Z,2.60
2019-03-05T11:48:24.049Z,2.50
2019-03-05T11:50:53.143Z,2.25
2019-03-05T11:53:22.211Z,3.60
2019-03-05T11:55:51.281Z,3.67
2019-03-05T11:58:20.362Z,2.72
2019-03-05T12:01:06.359Z,2.55
2019-03-05T12:03:35.605Z,2.35
2019-03-05T12:06:04.681Z,2.20
2019-03-05T12:08:33.765Z,2.00
2019-03-05T12:11:02.831Z,3.15
2019-03-05T12:13:31.910Z,2.77
2019-03-05T12:16:00.995Z,2.47
2019-03-05T12:18:30.546Z,2.37
2019-03-05T12:20:59.634Z,1.25
2019-03-05T12:23:28.702Z,1.72
2019-03-05T12:25:57.775Z,2.08
2019-03-05T12:28:26.854Z,1.65
2019-03-05T12:30:55.934Z,2.00
2019-03-05T12:33:25.014Z,2.50
2019-03-05T12:35:54.088Z,3.62
2019-03-05T12:38:23.161Z,1.92
2019-03-05T12:40:52.268Z,1.20
2019-03-05T12:43:22.404Z,4.17
2019-03-05T12:45:51.473Z,2.75
2019-03-05T12:48:20.869Z,2.80
2019-03-05T12:50:49.922Z,2.02
2019-03-05T12:53:18.989Z,1.98
2019-03-05T12:55:48.059Z,1.37
2019-03-05T12:58:17.435Z,4.40
2019-03-05T13:00:47.582Z,1.45
2019-03-05T13:03:16.655Z,2.22
2019-03-05T13:05:45.738Z,1.82
2019-03-05T13:08:14.807Z,1.45
2019-03-05T13:10:45.250Z,3.37
2019-03-05T13:13:15.388Z,1.67
2019-03-05T13:15:44.722Z,2.58
2019-03-05T13:18:14.382Z,2.67
2019-03-05T13:20:43.562Z,2.02
2019-03-05T13:23:12.634Z,1.60
2019-03-05T13:25:41.706Z,2.90
2019-03-05T13:28:10.954Z,2.77
2019-03-05T13:30:40.514Z,1.37
2019-03-05T13:33:09.723Z,1.55
2019-03-05T13:35:38.790Z,2.02
2019-03-05T13:38:10.475Z,2.08
2019-03-05T13:40:40.729Z,3.40
2019-03-05T13:43:10.120Z,2.62
2019-03-05T13:45:42.803Z,3.70
2019-03-05T13:48:23.251Z,1.50
2019-03-05T13:51:09.707Z,0.75
2019-03-05T13:54:05.800Z,1.47
2019-03-05T13:56:59.730Z,1.40
2019-03-05T13:59:45.198Z,2.40
2019-03-05T14:02:20.607Z,1.37
2019-03-05T14:07:53.927Z,0.80
2019-03-05T14:10:22.989Z,1.60
2019-03-05T14:12:52.062Z,1.17
2019-03-05T14:15:21.515Z,1.05
2019-03-05T14:17:50.626Z,1.02
2019-03-05T14:20:19.676Z,1.50
2019-03-05T14:22:49.092Z,3.83
2019-03-05T14:25:18.248Z,3.83
2019-03-05T14:27:47.315Z,0.72
2019-03-05T14:30:21.342Z,0.40
2019-03-05T14:32:50.535Z,0.72
2019-03-05T14:35:21.422Z,0.50
2019-03-05T14:37:50.520Z,1.85
2019-03-05T14:40:27.992Z,1.37
2019-03-05T14:42:57.152Z,1.05
2019-03-05T14:45:28.395Z,0.55
2019-03-05T14:47:58.886Z,1.50
2019-03-05T14:50:27.981Z,0.72
2019-03-05T14:52:57.298Z,0.50
2019-03-05T14:55:26.705Z,0.85
2019-03-05T14:57:55.780Z,1.30
2019-03-05T15:00:25.043Z,1.15
2019-03-05T15:02:54.137Z,0.93
2019-03-05T15:05:24.759Z,3.08
2019-03-05T15:07:53.873Z,2.80
2019-03-05T15:10:22.974Z,1.85
2019-03-05T15:12:52.028Z,1.00
2019-03-05T15:15:27.151Z,0.93
2019-03-05T15:17:56.232Z,1.12
2019-03-05T15:20:25.316Z,1.07
2019-03-05T15:22:54.675Z,1.57
2019-03-05T15:25:23.751Z,1.52
2019-03-05T15:27:53.184Z,1.30
2019-03-05T15:30:28.936Z,0.80
2019-03-05T15:32:58.053Z,0.70
2019-03-05T15:35:27.399Z,2.50
2019-03-05T15:37:56.537Z,1.42
2019-03-05T15:40:26.688Z,1.17
2019-03-05T15:42:55.772Z,1.15
2019-03-05T15:45:24.890Z,3.42
2019-03-05T15:47:54.023Z,1.60
2019-03-05T15:50:26.176Z,0.75
2019-03-05T15:52:55.269Z,1.85
2019-03-05T15:55:25.295Z,1.70
2019-03-05T15:57:54.379Z,1.62
2019-03-05T16:00:31.662Z,0.95
2019-03-05T16:03:01.111Z,0.78
2019-03-05T16:05:30.359Z,0.70
2019-03-05T16:08:01.222Z,1.37
2019-03-05T16:10:30.574Z,4.20
2019-03-05T16:12:59.658Z,3.33
2019-03-05T16:15:29.022Z,1.30
2019-03-05T16:18:01.427Z,1.55
2019-03-05T16:20:29.922Z,1.25
2019-03-05T16:22:59.129Z,2.52
2019-03-05T16:25:28.203Z,1.55
2019-03-05T16:27:57.282Z,1.82
2019-03-05T16:30:45.674Z,2.00
2019-03-05T16:33:36.928Z,1.85
2019-03-05T16:36:17.510Z,2.85
2019-03-05T16:38:51.192Z,2.95
2019-03-05T16:41:24.546Z,16.00
2019-03-05T16:44:04.040Z,3.72
2019-03-05T16:46:51.006Z,3.33
2019-03-05T16:49:27.778Z,2.65
2019-03-05T16:52:10.499Z,1.45
2019-03-05T16:54:43.880Z,1.77
2019-03-05T16:57:20.555Z,3.62
2019-03-05T16:59:53.221Z,4.03
2019-03-05T17:02:40.147Z,3.17
2019-03-05T17:05:22.723Z,2.50
2019-03-05T17:08:09.913Z,2.85
2019-03-05T17:10:43.535Z,1.47
2019-03-05T17:13:12.686Z,1.60
2019-03-05T17:15:41.943Z,12.88
2019-03-05T17:18:11.087Z,2.22
2019-03-05T17:20:40.414Z,3.20
2019-03-05T17:23:10.046Z,15.53
2019-03-05T17:25:39.310Z,2.67
2019-03-05T17:28:08.462Z,3.58
2019-03-05T17:30:37.697Z,3.22
2019-03-05T17:33:06.959Z,2.42
2019-03-05T17:35:37.198Z,5.22
2019-03-05T17:38:06.646Z,3.37
2019-03-05T17:40:35.899Z,3.17
2019-03-05T17:43:06.599Z,2.02
2019-03-05T17:45:35.747Z,3.00
2019-03-05T17:48:04.823Z,2.98
2019-03-05T17:50:34.162Z,3.92
2019-03-05T17:53:03.322Z,2.27
2019-03-05T17:55:33.866Z,2.30
2019-03-05T17:58:03.190Z,4.10
2019-03-05T18:00:36.599Z,4.15
2019-03-05T18:03:06.338Z,4.92
2019-03-05T18:05:35.486Z,6.00
2019-03-05T18:08:04.562Z,3.50
2019-03-05T18:10:33.810Z,2.55
2019-03-05T18:13:03.275Z,4.25
2019-03-05T18:15:32.534Z,1.92
2019-03-05T18:18:01.779Z,3.27
2019-03-05T18:20:32.506Z,1.77
2019-03-05T18:23:01.661Z,2.20
2019-03-05T18:25:32.646Z,4.40
2019-03-05T18:28:01.994Z,3.80
2019-03-05T18:30:31.915Z,1.80
2019-03-05T18:33:00.990Z,3.12
2019-03-05T18:35:30.230Z,3.83
2019-03-05T18:37:59.318Z,4.08
2019-03-05T18:40:28.390Z,2.90
2019-03-05T18:42:57.534Z,2.83
2019-03-05T18:45:28.554Z,2.60
2019-03-05T18:47:57.631Z,2.37
2019-03-05T18:50:26.810Z,2.47
2019-03-05T18:53:11.743Z,3.15
2019-03-05T18:55:40.828Z,4.70
2019-03-05T18:58:09.899Z,3.02
2019-03-05T19:00:38.979Z,2.40
2019-03-05T19:03:11.629Z,3.85
2019-03-05T19:05:40.883Z,4.45
2019-03-05T19:08:09.963Z,3.35
2019-03-05T19:10:39.035Z,2.00
2019-03-05T19:13:08.435Z,1.77
2019-03-05T19:15:37.507Z,2.20
2019-03-05T19:18:06.771Z,2.90
2019-03-05T19:20:35.844Z,2.20
2019-03-05T19:23:04.928Z,2.25
2019-03-05T19:25:39.534Z,2.72
2019-03-05T19:28:11.353Z,2.37
2019-03-05T19:30:45.966Z,4.60
2019-03-05T19:33:15.360Z,4.28
2019-03-05T19:35:44.431Z,5.20
2019-03-05T19:38:13.508Z,5.10
2019-03-05T19:40:44.035Z,3.83
2019-03-05T19:43:13.114Z,3.37
2019-03-05T19:45:42.498Z,4.60
2019-03-05T19:48:11.616Z,4.42
2019-03-05T19:50:40.962Z,4.00
2019-03-05T19:53:10.069Z,3.47
2019-03-05T19:55:39.249Z,5.70
2019-03-05T19:58:09.167Z,4.08
2019-03-05T20:00:55.811Z,3.77
2019-03-05T20:03:24.902Z,3.85
2019-03-05T20:05:54.791Z,4.65
2019-03-05T20:08:24.208Z,4.90
2019-03-05T20:10:53.308Z,6.20
2019-03-05T20:13:22.457Z,6.70
2019-03-05T20:15:51.540Z,5.83
2019-03-05T20:18:20.648Z,6.25
2019-03-05T20:20:50.020Z,5.95
2019-03-05T20:23:19.169Z,6.65
2019-03-05T20:25:48.609Z,6.22
2019-03-05T20:28:20.946Z,7.37
2019-03-05T20:30:50.047Z,6.42
2019-03-05T20:33:19.142Z,8.63
2019-03-05T20:35:48.598Z,6.83
2019-03-05T20:38:17.723Z,9.28
2019-03-05T20:40:46.903Z,7.62
2019-03-05T20:43:16.064Z,7.92
2019-03-05T20:45:57.303Z,10.68
2019-03-05T20:48:26.864Z,9.30
2019-03-05T20:50:56.247Z,10.25
2019-03-05T20:53:25.418Z,11.83
2019-03-05T20:55:56.304Z,10.38
2019-03-05T20:58:26.556Z,11.03
2019-03-05T21:00:55.759Z,11.70
2019-03-05T21:03:24.864Z,12.07
2019-03-05T21:05:54.269Z,11.10
2019-03-05T21:08:23.392Z,12.55
2019-03-05T21:10:52.860Z,12.18
2019-03-05T21:13:23.601Z,11.95
2019-03-05T21:15:52.701Z,12.43
2019-03-05T21:18:23.436Z,14.85
2019-03-05T21:20:52.535Z,12.18
2019-03-05T21:23:21.913Z,15.35
2019-03-05T21:25:51.296Z,13.05
2019-03-05T21:28:20.573Z,15.10
2019-03-05T21:30:49.648Z,13.60
2019-03-05T21:33:18.838Z,13.22
2019-03-05T21:35:47.927Z,13.50
2019-03-05T21:38:17.289Z,12.13
2019-03-05T21:40:46.469Z,13.25
2019-03-05T21:43:15.573Z,13.53
2019-03-05T21:45:51.577Z,14.43
2019-03-05T21:48:20.744Z,14.53
2019-03-05T21:50:50.029Z,14.35
2019-03-05T21:53:19.110Z,15.35
2019-03-05T21:55:48.191Z,14.10
2019-03-05T21:58:17.274Z,15.03
2019-03-05T22:00:46.435Z,15.38
2019-03-05T22:03:15.788Z,15.95
2019-03-05T22:05:45.942Z,16.77
2019-03-05T22:08:15.032Z,16.10
2019-03-05T22:10:44.274Z,16.95
2019-03-05T22:13:13.367Z,15.95
2019-03-05T22:15:42.475Z,20.95
2019-03-05T22:18:11.839Z,19.20
2019-03-05T22:20:41.086Z,20.05
2019-03-05T22:23:10.250Z,19.50
2019-03-05T22:25:39.344Z,23.20
2019-03-05T22:28:08.418Z,20.90
2019-03-05T22:30:38.424Z,16.93
2019-03-05T22:33:07.770Z,19.55
2019-03-05T22:35:36.864Z,17.42
2019-03-05T22:38:06.110Z,20.05
2019-03-05T22:40:35.191Z,17.65
2019-03-05T22:43:04.279Z,18.73
2019-03-05T22:45:36.491Z,19.67
2019-03-05T22:48:05.590Z,16.48
2019-03-05T22:50:34.674Z,20.48
2019-03-05T22:53:04.020Z,20.57
2019-03-05T22:55:33.420Z,20.27
2019-03-05T22:58:02.494Z,19.12
2019-03-05T23:00:51.214Z,22.05
2019-03-05T23:03:24.258Z,18.73
2019-03-05T23:05:53.526Z,21.15
2019-03-05T23:08:22.774Z,17.23
2019-03-05T23:10:53.491Z,17.32
2019-03-05T23:13:22.740Z,18.12
2019-03-05T23:15:51.907Z,18.50
2019-03-05T23:18:21.603Z,18.48
2019-03-05T23:20:50.689Z,17.17
2019-03-05T23:23:20.818Z,17.02
2019-03-05T23:25:50.006Z,16.60
2019-03-05T23:28:19.347Z,15.70
2019-03-05T23:30:49.523Z,17.05
2019-03-05T23:33:19.076Z,19.07
2019-03-05T23:35:48.159Z,17.23
2019-03-05T23:38:17.254Z,18.30
2019-03-05T23:40:46.340Z,15.65
2019-03-05T23:43:15.439Z,17.82
2019-03-05T23:45:44.518Z,16.05
2019-03-05T23:48:13.622Z,17.92
2019-03-05T23:50:42.706Z,18.35
2019-03-05T23:53:11.791Z,20.62
2019-03-05T23:55:40.887Z,20.35
2019-03-05T23:58:10.002Z,16.62
